sensor_id;sensor_type;location;lat;lon;timestamp;temperature;humidity
7920;DHT22;18778;47.610;9.776;2023-06-19T00:14:01;18.00;99.90
7920;DHT22;18778;47.610;9.776;2023-06-19T01:07:59;17.80;99.90
7920;DHT22;18778;47.610;9.776;2023-06-19T01:10:28;17.90;99.90
7920;DHT22;18778;47.610;9.776;2023-06-19T01:17:55;17.90;99.90
7920;DHT22;18778;47.610;9.776;2023-06-19T01:27:40;17.90;99.90
7920;DHT22;18778;47.610;9.776;2023-06-19T01:30:07;17.90;99.90
7920;DHT22;18778;47.610;9.776;2023-06-19T01:32:53;17.70;99.90
7920;DHT22;18778;47.610;9.776;2023-06-19T01:35:27;17.70;99.90
7920;DHT22;18778;47.610;9.776;2023-06-19T01:42:50;17.60;99.90
7920;DHT22;18778;47.610;9.776;2023-06-19T02:12:05;17.60;99.90
7920;DHT22;18778;47.610;9.776;2023-06-19T02:43:48;17.00;99.90
7920;DHT22;18778;47.610;9.776;2023-06-19T02:58:24;16.70;99.90
7920;DHT22;18778;47.610;9.776;2023-06-19T03:10:56;17.10;99.90
7920;DHT22;18778;47.610;9.776;2023-06-19T04:34:16;18.20;99.90
7920;DHT22;18778;47.610;9.776;2023-06-19T05:42:27;20.40;99.90
7920;DHT22;18778;47.610;9.776;2023-06-19T05:49:47;20.30;99.90
7920;DHT22;18778;47.610;9.776;2023-06-19T05:54:41;20.10;99.90
7920;DHT22;18778;47.610;9.776;2023-06-19T06:01:59;19.70;99.90
7920;DHT22;18778;47.610;9.776;2023-06-19T07:50:08;22.80;99.90
7920;DHT22;18778;47.610;9.776;2023-06-19T07:52:34;23.00;99.90
7920;DHT22;18778;47.610;9.776;2023-06-19T07:55:02;23.00;99.90
7920;DHT22;18778;47.610;9.776;2023-06-19T07:57:28;23.10;99.90
7920;DHT22;18778;47.610;9.776;2023-06-19T07:59:54;23.30;99.90
7920;DHT22;18778;47.610;9.776;2023-06-19T08:02:20;23.50;99.90
7920;DHT22;18778;47.610;9.776;2023-06-19T08:04:48;23.50;99.90
7920;DHT22;18778;47.610;9.776;2023-06-19T08:07:14;23.70;99.90
7920;DHT22;18778;47.610;9.776;2023-06-19T08:09:39;24.10;99.90
7920;DHT22;18778;47.610;9.776;2023-06-19T08:14:31;24.30;99.90
7920;DHT22;18778;47.610;9.776;2023-06-19T08:16:57;24.50;99.90
7920;DHT22;18778;47.610;9.776;2023-06-19T08:19:22;24.60;99.90
7920;DHT22;18778;47.610;9.776;2023-06-19T08:21:48;24.70;99.90
7920;DHT22;18778;47.610;9.776;2023-06-19T08:24:14;25.10;99.90
7920;DHT22;18778;47.610;9.776;2023-06-19T08:26:39;25.60;99.90
7920;DHT22;18778;47.610;9.776;2023-06-19T08:29:05;25.80;99.90
7920;DHT22;18778;47.610;9.776;2023-06-19T08:31:30;25.90;99.90
7920;DHT22;18778;47.610;9.776;2023-06-19T08:33:56;26.30;99.60
7920;DHT22;18778;47.610;9.776;2023-06-19T08:36:22;26.60;99.90
7920;DHT22;18778;47.610;9.776;2023-06-19T08:38:48;27.20;95.70
7920;DHT22;18778;47.610;9.776;2023-06-19T08:41:19;27.10;96.10
7920;DHT22;18778;47.610;9.776;2023-06-19T08:43:45;26.80;96.80
7920;DHT22;18778;47.610;9.776;2023-06-19T08:46:14;27.00;95.70
7920;DHT22;18778;47.610;9.776;2023-06-19T08:48:40;27.30;95.10
7920;DHT22;18778;47.610;9.776;2023-06-19T08:51:06;27.00;92.20
7920;DHT22;18778;47.610;9.776;2023-06-19T08:53:43;27.10;92.40
7920;DHT22;18778;47.610;9.776;2023-06-19T08:56:08;27.10;92.50
7920;DHT22;18778;47.610;9.776;2023-06-19T08:58:34;26.80;92.40
7920;DHT22;18778;47.610;9.776;2023-06-19T09:00:59;27.00;93.60
7920;DHT22;18778;47.610;9.776;2023-06-19T09:03:25;27.30;93.20
7920;DHT22;18778;47.610;9.776;2023-06-19T09:05:51;27.30;92.20
7920;DHT22;18778;47.610;9.776;2023-06-19T09:08:20;27.30;93.80
7920;DHT22;18778;47.610;9.776;2023-06-19T09:11:03;27.20;90.80
7920;DHT22;18778;47.610;9.776;2023-06-19T09:13:31;26.80;91.70
7920;DHT22;18778;47.610;9.776;2023-06-19T09:16:07;26.80;91.90
7920;DHT22;18778;47.610;9.776;2023-06-19T09:18:47;26.90;91.00
7920;DHT22;18778;47.610;9.776;2023-06-19T09:21:17;27.00;90.90
7920;DHT22;18778;47.610;9.776;2023-06-19T09:23:45;26.90;91.60
7920;DHT22;18778;47.610;9.776;2023-06-19T09:26:14;26.80;91.40
7920;DHT22;18778;47.610;9.776;2023-06-19T09:28:41;26.50;91.10
7920;DHT22;18778;47.610;9.776;2023-06-19T09:31:10;26.50;91.10
7920;DHT22;18778;47.610;9.776;2023-06-19T09:33:37;26.30;91.00
7920;DHT22;18778;47.610;9.776;2023-06-19T09:36:04;26.50;92.10
7920;DHT22;18778;47.610;9.776;2023-06-19T09:38:32;26.80;91.80
7920;DHT22;18778;47.610;9.776;2023-06-19T09:41:01;26.90;92.90
7920;DHT22;18778;47.610;9.776;2023-06-19T09:44:02;27.10;91.00
7920;DHT22;18778;47.610;9.776;2023-06-19T09:46:35;27.50;93.10
7920;DHT22;18778;47.610;9.776;2023-06-19T09:49:04;27.90;90.60
7920;DHT22;18778;47.610;9.776;2023-06-19T09:51:35;28.00;90.50
7920;DHT22;18778;47.610;9.776;2023-06-19T09:54:03;28.00;90.40
7920;DHT22;18778;47.610;9.776;2023-06-19T09:56:30;28.20;86.40
7920;DHT22;18778;47.610;9.776;2023-06-19T09:58:57;28.40;91.20
7920;DHT22;18778;47.610;9.776;2023-06-19T10:01:29;28.50;88.40
7920;DHT22;18778;47.610;9.776;2023-06-19T10:04:06;28.50;90.10
7920;DHT22;18778;47.610;9.776;2023-06-19T10:06:32;28.80;88.30
7920;DHT22;18778;47.610;9.776;2023-06-19T10:09:07;29.00;89.00
7920;DHT22;18778;47.610;9.776;2023-06-19T10:11:50;29.10;90.40
7920;DHT22;18778;47.610;9.776;2023-06-19T10:14:21;29.30;88.40
7920;DHT22;18778;47.610;9.776;2023-06-19T10:16:46;29.30;87.20
7920;DHT22;18778;47.610;9.776;2023-06-19T10:19:16;29.30;80.30
7920;DHT22;18778;47.610;9.776;2023-06-19T10:21:53;29.40;85.10
7920;DHT22;18778;47.610;9.776;2023-06-19T10:24:20;29.50;86.10
7920;DHT22;18778;47.610;9.776;2023-06-19T10:27:02;29.60;81.30
7920;DHT22;18778;47.610;9.776;2023-06-19T10:29:40;29.70;77.60
7920;DHT22;18778;47.610;9.776;2023-06-19T10:32:06;29.70;79.40
7920;DHT22;18778;47.610;9.776;2023-06-19T10:34:35;29.80;77.90
7920;DHT22;18778;47.610;9.776;2023-06-19T10:37:01;29.50;79.40
7920;DHT22;18778;47.610;9.776;2023-06-19T10:39:27;29.20;79.90
7920;DHT22;18778;47.610;9.776;2023-06-19T10:41:53;28.80;76.60
7920;DHT22;18778;47.610;9.776;2023-06-19T10:44:18;28.70;76.20
7920;DHT22;18778;47.610;9.776;2023-06-19T10:49:10;28.70;84.80
7920;DHT22;18778;47.610;9.776;2023-06-19T10:51:41;28.80;83.70
7920;DHT22;18778;47.610;9.776;2023-06-19T10:54:09;29.00;83.90
7920;DHT22;18778;47.610;9.776;2023-06-19T10:59:07;29.20;78.80
7920;DHT22;18778;47.610;9.776;2023-06-19T11:01:42;29.20;79.80
7920;DHT22;18778;47.610;9.776;2023-06-19T11:04:10;29.40;83.00
7920;DHT22;18778;47.610;9.776;2023-06-19T11:06:36;29.40;82.30
7920;DHT22;18778;47.610;9.776;2023-06-19T11:09:03;29.50;83.90
7920;DHT22;18778;47.610;9.776;2023-06-19T11:11:42;29.70;81.60
7920;DHT22;18778;47.610;9.776;2023-06-19T11:14:08;29.70;78.10
7920;DHT22;18778;47.610;9.776;2023-06-19T11:16:36;29.70;74.60
7920;DHT22;18778;47.610;9.776;2023-06-19T11:19:02;29.50;74.20
7920;DHT22;18778;47.610;9.776;2023-06-19T11:21:36;29.50;73.80
7920;DHT22;18778;47.610;9.776;2023-06-19T11:24:09;29.50;76.30
7920;DHT22;18778;47.610;9.776;2023-06-19T11:26:41;29.60;74.40
7920;DHT22;18778;47.610;9.776;2023-06-19T11:29:30;29.60;75.50
7920;DHT22;18778;47.610;9.776;2023-06-19T11:32:13;29.90;77.70
7920;DHT22;18778;47.610;9.776;2023-06-19T11:34:39;30.10;76.80
7920;DHT22;18778;47.610;9.776;2023-06-19T11:37:31;30.40;73.90
7920;DHT22;18778;47.610;9.776;2023-06-19T11:39:58;30.40;70.20
7920;DHT22;18778;47.610;9.776;2023-06-19T11:42:25;30.40;71.70
7920;DHT22;18778;47.610;9.776;2023-06-19T11:45:01;30.50;72.10
7920;DHT22;18778;47.610;9.776;2023-06-19T11:47:33;30.40;70.00
7920;DHT22;18778;47.610;9.776;2023-06-19T11:49:59;30.40;71.20
7920;DHT22;18778;47.610;9.776;2023-06-19T11:52:25;30.50;70.90
7920;DHT22;18778;47.610;9.776;2023-06-19T11:54:51;30.50;71.90
7920;DHT22;18778;47.610;9.776;2023-06-19T11:57:17;30.40;73.30
7920;DHT22;18778;47.610;9.776;2023-06-19T11:59:42;30.40;70.10
7920;DHT22;18778;47.610;9.776;2023-06-19T12:02:08;30.70;69.70
7920;DHT22;18778;47.610;9.776;2023-06-19T12:04:34;30.70;69.70
7920;DHT22;18778;47.610;9.776;2023-06-19T12:07:00;30.80;76.10
7920;DHT22;18778;47.610;9.776;2023-06-19T12:09:26;30.90;73.70
7920;DHT22;18778;47.610;9.776;2023-06-19T12:11:53;31.10;76.90
7920;DHT22;18778;47.610;9.776;2023-06-19T12:14:18;31.30;69.90
7920;DHT22;18778;47.610;9.776;2023-06-19T12:16:48;31.30;70.10
7920;DHT22;18778;47.610;9.776;2023-06-19T12:19:14;31.10;73.70
7920;DHT22;18778;47.610;9.776;2023-06-19T12:21:39;30.60;68.20
7920;DHT22;18778;47.610;9.776;2023-06-19T12:24:05;30.60;68.20
7920;DHT22;18778;47.610;9.776;2023-06-19T12:26:32;30.70;71.50
7920;DHT22;18778;47.610;9.776;2023-06-19T12:29:02;30.80;73.20
7920;DHT22;18778;47.610;9.776;2023-06-19T12:31:29;30.70;68.70
7920;DHT22;18778;47.610;9.776;2023-06-19T12:36:21;30.30;72.50
7920;DHT22;18778;47.610;9.776;2023-06-19T12:38:46;30.40;74.20
7920;DHT22;18778;47.610;9.776;2023-06-19T12:41:13;30.50;71.30
7920;DHT22;18778;47.610;9.776;2023-06-19T12:43:38;30.60;75.70
7920;DHT22;18778;47.610;9.776;2023-06-19T12:48:30;31.20;68.30
7920;DHT22;18778;47.610;9.776;2023-06-19T12:50:57;31.20;67.70
7920;DHT22;18778;47.610;9.776;2023-06-19T12:53:22;31.10;67.70
7920;DHT22;18778;47.610;9.776;2023-06-19T12:55:52;31.20;68.00
7920;DHT22;18778;47.610;9.776;2023-06-19T12:58:19;31.20;69.90
7920;DHT22;18778;47.610;9.776;2023-06-19T13:03:10;31.10;68.00
7920;DHT22;18778;47.610;9.776;2023-06-19T13:08:02;31.30;71.20
7920;DHT22;18778;47.610;9.776;2023-06-19T13:10:27;31.40;66.60
7920;DHT22;18778;47.610;9.776;2023-06-19T13:12:53;31.60;68.80
7920;DHT22;18778;47.610;9.776;2023-06-19T13:15:18;31.60;67.80
7920;DHT22;18778;47.610;9.776;2023-06-19T13:17:44;31.60;65.60
7920;DHT22;18778;47.610;9.776;2023-06-19T13:22:36;31.70;67.20
7920;DHT22;18778;47.610;9.776;2023-06-19T13:25:02;31.90;68.90
7920;DHT22;18778;47.610;9.776;2023-06-19T13:27:27;32.30;67.00
7920;DHT22;18778;47.610;9.776;2023-06-19T13:29:54;32.50;65.30
7920;DHT22;18778;47.610;9.776;2023-06-19T13:32:20;32.50;65.40
7920;DHT22;18778;47.610;9.776;2023-06-19T13:34:45;32.40;66.10
7920;DHT22;18778;47.610;9.776;2023-06-19T13:37:11;32.50;68.40
7920;DHT22;18778;47.610;9.776;2023-06-19T13:39:36;32.20;64.10
7920;DHT22;18778;47.610;9.776;2023-06-19T13:42:03;31.80;65.80
7920;DHT22;18778;47.610;9.776;2023-06-19T13:44:29;32.00;66.80
7920;DHT22;18778;47.610;9.776;2023-06-19T13:46:54;32.30;63.50
7920;DHT22;18778;47.610;9.776;2023-06-19T13:49:20;32.10;64.30
7920;DHT22;18778;47.610;9.776;2023-06-19T13:51:45;32.00;61.40
7920;DHT22;18778;47.610;9.776;2023-06-19T13:56:39;31.50;64.70
7920;DHT22;18778;47.610;9.776;2023-06-19T13:59:05;31.60;66.90
7920;DHT22;18778;47.610;9.776;2023-06-19T14:01:31;31.70;64.10
7920;DHT22;18778;47.610;9.776;2023-06-19T14:06:26;32.00;63.10
7920;DHT22;18778;47.610;9.776;2023-06-19T14:08:52;32.10;61.10
7920;DHT22;18778;47.610;9.776;2023-06-19T14:11:18;32.90;62.70
7920;DHT22;18778;47.610;9.776;2023-06-19T14:13:44;33.90;59.10
7920;DHT22;18778;47.610;9.776;2023-06-19T14:16:09;35.10;60.20
7920;DHT22;18778;47.610;9.776;2023-06-19T14:18:35;35.90;58.10
7920;DHT22;18778;47.610;9.776;2023-06-19T14:21:02;36.50;54.80
7920;DHT22;18778;47.610;9.776;2023-06-19T14:23:28;37.20;52.00
7920;DHT22;18778;47.610;9.776;2023-06-19T14:25:54;36.80;53.90
7920;DHT22;18778;47.610;9.776;2023-06-19T14:28:19;37.40;52.20
7920;DHT22;18778;47.610;9.776;2023-06-19T14:30:45;37.80;50.60
7920;DHT22;18778;47.610;9.776;2023-06-19T14:33:11;37.90;51.60
7920;DHT22;18778;47.610;9.776;2023-06-19T14:35:41;38.40;51.00
7920;DHT22;18778;47.610;9.776;2023-06-19T14:38:06;38.40;48.50
7920;DHT22;18778;47.610;9.776;2023-06-19T14:40:32;39.00;49.50
7920;DHT22;18778;47.610;9.776;2023-06-19T14:42:58;39.30;46.90
7920;DHT22;18778;47.610;9.776;2023-06-19T14:45:23;39.70;45.90
7920;DHT22;18778;47.610;9.776;2023-06-19T14:47:49;40.40;48.20
7920;DHT22;18778;47.610;9.776;2023-06-19T14:50:15;40.90;45.40
7920;DHT22;18778;47.610;9.776;2023-06-19T14:52:41;40.50;43.00
7920;DHT22;18778;47.610;9.776;2023-06-19T14:55:06;40.50;43.10
7920;DHT22;18778;47.610;9.776;2023-06-19T15:00:01;40.60;41.40
7920;DHT22;18778;47.610;9.776;2023-06-19T15:02:27;40.90;42.90
7920;DHT22;18778;47.610;9.776;2023-06-19T15:07:19;42.10;38.30
7920;DHT22;18778;47.610;9.776;2023-06-19T15:09:44;42.20;39.70
7920;DHT22;18778;47.610;9.776;2023-06-19T15:12:10;42.20;41.50
7920;DHT22;18778;47.610;9.776;2023-06-19T15:14:35;42.00;40.20
7920;DHT22;18778;47.610;9.776;2023-06-19T15:17:03;41.30;39.10
7920;DHT22;18778;47.610;9.776;2023-06-19T15:19:29;40.60;40.20
7920;DHT22;18778;47.610;9.776;2023-06-19T15:21:54;40.70;39.10
7920;DHT22;18778;47.610;9.776;2023-06-19T15:24:20;40.60;39.30
7920;DHT22;18778;47.610;9.776;2023-06-19T15:26:46;40.70;41.60
7920;DHT22;18778;47.610;9.776;2023-06-19T15:29:11;41.00;40.60
7920;DHT22;18778;47.610;9.776;2023-06-19T15:31:37;41.00;42.00
7920;DHT22;18778;47.610;9.776;2023-06-19T15:34:02;40.90;39.90
7920;DHT22;18778;47.610;9.776;2023-06-19T15:36:28;40.60;39.80
7920;DHT22;18778;47.610;9.776;2023-06-19T15:38:54;40.10;41.60
7920;DHT22;18778;47.610;9.776;2023-06-19T15:41:19;40.20;40.00
7920;DHT22;18778;47.610;9.776;2023-06-19T15:46:14;40.50;41.90
7920;DHT22;18778;47.610;9.776;2023-06-19T15:48:39;40.90;41.80
7920;DHT22;18778;47.610;9.776;2023-06-19T15:51:05;41.30;40.80
7920;DHT22;18778;47.610;9.776;2023-06-19T15:53:31;41.00;40.20
7920;DHT22;18778;47.610;9.776;2023-06-19T15:55:57;40.30;39.70
7920;DHT22;18778;47.610;9.776;2023-06-19T16:08:13;39.30;40.00
7920;DHT22;18778;47.610;9.776;2023-06-19T16:32:33;32.50;52.40
7920;DHT22;18778;47.610;9.776;2023-06-19T16:34:59;31.70;54.10
7920;DHT22;18778;47.610;9.776;2023-06-19T16:37:24;31.10;57.50
7920;DHT22;18778;47.610;9.776;2023-06-19T16:39:50;30.70;55.50
7920;DHT22;18778;47.610;9.776;2023-06-19T16:42:17;30.30;57.60
7920;DHT22;18778;47.610;9.776;2023-06-19T16:49:36;29.70;59.40
7920;DHT22;18778;47.610;9.776;2023-06-19T16:52:02;29.50;60.70
7920;DHT22;18778;47.610;9.776;2023-06-19T16:56:54;29.30;63.60
7920;DHT22;18778;47.610;9.776;2023-06-19T16:59:19;29.10;65.70
7920;DHT22;18778;47.610;9.776;2023-06-19T17:01:45;28.90;67.90
7920;DHT22;18778;47.610;9.776;2023-06-19T17:04:11;28.80;68.10
7920;DHT22;18778;47.610;9.776;2023-06-19T17:06:36;28.60;67.60
7920;DHT22;18778;47.610;9.776;2023-06-19T17:09:02;28.40;70.00
7920;DHT22;18778;47.610;9.776;2023-06-19T17:11:31;28.30;68.80
7920;DHT22;18778;47.610;9.776;2023-06-19T17:16:22;27.90;70.20
7920;DHT22;18778;47.610;9.776;2023-06-19T17:21:14;27.60;72.20
7920;DHT22;18778;47.610;9.776;2023-06-19T17:23:39;27.40;71.20
7920;DHT22;18778;47.610;9.776;2023-06-19T17:26:05;27.40;70.70
7920;DHT22;18778;47.610;9.776;2023-06-19T17:28:31;27.30;70.20
7920;DHT22;18778;47.610;9.776;2023-06-19T17:30:56;27.30;71.30
7920;DHT22;18778;47.610;9.776;2023-06-19T17:33:22;27.10;70.70
7920;DHT22;18778;47.610;9.776;2023-06-19T17:35:47;26.80;70.50
7920;DHT22;18778;47.610;9.776;2023-06-19T17:38:13;26.60;73.40
7920;DHT22;18778;47.610;9.776;2023-06-19T17:40:38;25.90;80.70
7920;DHT22;18778;47.610;9.776;2023-06-19T17:43:04;25.80;83.00
7920;DHT22;18778;47.610;9.776;2023-06-19T17:45:30;25.00;90.30
7920;DHT22;18778;47.610;9.776;2023-06-19T17:47:55;23.40;97.60
7920;DHT22;18778;47.610;9.776;2023-06-19T17:50:21;23.20;97.90
7920;DHT22;18778;47.610;9.776;2023-06-19T17:52:46;21.90;99.90
7920;DHT22;18778;47.610;9.776;2023-06-19T17:55:12;20.80;99.90
7920;DHT22;18778;47.610;9.776;2023-06-19T17:57:38;20.00;99.90
7920;DHT22;18778;47.610;9.776;2023-06-19T18:00:05;19.70;99.90
7920;DHT22;18778;47.610;9.776;2023-06-19T18:02:31;19.60;99.90
7920;DHT22;18778;47.610;9.776;2023-06-19T18:04:59;19.60;99.90
7920;DHT22;18778;47.610;9.776;2023-06-19T18:07:24;19.40;99.90
7920;DHT22;18778;47.610;9.776;2023-06-19T18:12:18;19.40;99.90
7920;DHT22;18778;47.610;9.776;2023-06-19T18:14:44;19.40;99.90
7920;DHT22;18778;47.610;9.776;2023-06-19T18:17:10;19.50;99.90
7920;DHT22;18778;47.610;9.776;2023-06-19T18:19:37;19.50;99.90
7920;DHT22;18778;47.610;9.776;2023-06-19T18:22:03;19.50;99.90
7920;DHT22;18778;47.610;9.776;2023-06-19T18:24:28;19.40;99.90
7920;DHT22;18778;47.610;9.776;2023-06-19T18:26:54;19.40;99.90
7920;DHT22;18778;47.610;9.776;2023-06-19T18:29:20;19.40;99.90
7920;DHT22;18778;47.610;9.776;2023-06-19T18:31:46;19.30;99.90
7920;DHT22;18778;47.610;9.776;2023-06-19T18:34:12;19.30;99.90
7920;DHT22;18778;47.610;9.776;2023-06-19T18:36:38;19.30;99.90
7920;DHT22;18778;47.610;9.776;2023-06-19T18:39:04;19.20;99.90
7920;DHT22;18778;47.610;9.776;2023-06-19T18:41:29;19.20;99.90
7920;DHT22;18778;47.610;9.776;2023-06-19T18:43:55;19.20;99.90
7920;DHT22;18778;47.610;9.776;2023-06-19T18:46:21;19.30;99.90
7920;DHT22;18778;47.610;9.776;2023-06-19T18:51:13;19.50;99.90
7920;DHT22;18778;47.610;9.776;2023-06-19T18:56:05;19.60;99.90
7920;DHT22;18778;47.610;9.776;2023-06-19T18:58:30;19.60;99.90
7920;DHT22;18778;47.610;9.776;2023-06-19T19:00:56;19.60;99.90
7920;DHT22;18778;47.610;9.776;2023-06-19T19:03:22;19.60;99.90
7920;DHT22;18778;47.610;9.776;2023-06-19T19:05:47;19.60;99.90
7920;DHT22;18778;47.610;9.776;2023-06-19T19:08:14;19.60;99.90
7920;DHT22;18778;47.610;9.776;2023-06-19T19:10:40;19.70;99.90
7920;DHT22;18778;47.610;9.776;2023-06-19T19:13:05;19.70;99.90
7920;DHT22;18778;47.610;9.776;2023-06-19T19:15:35;19.70;99.90
7920;DHT22;18778;47.610;9.776;2023-06-19T19:18:00;19.70;99.90
7920;DHT22;18778;47.610;9.776;2023-06-19T19:20:26;19.70;99.90
7920;DHT22;18778;47.610;9.776;2023-06-19T19:22:52;19.70;99.90
7920;DHT22;18778;47.610;9.776;2023-06-19T19:30:10;19.70;99.90
7920;DHT22;18778;47.610;9.776;2023-06-19T19:32:35;19.70;99.90
7920;DHT22;18778;47.610;9.776;2023-06-19T19:35:01;19.60;99.90
7920;DHT22;18778;47.610;9.776;2023-06-19T19:37:27;19.60;99.90
7920;DHT22;18778;47.610;9.776;2023-06-19T19:39:57;19.60;99.90
7920;DHT22;18778;47.610;9.776;2023-06-19T19:42:24;19.50;99.90
7920;DHT22;18778;47.610;9.776;2023-06-19T19:44:50;19.50;99.90
7920;DHT22;18778;47.610;9.776;2023-06-19T19:47:16;19.40;99.90
7920;DHT22;18778;47.610;9.776;2023-06-19T19:52:08;19.30;99.90
7920;DHT22;18778;47.610;9.776;2023-06-19T19:54:33;19.30;99.90
7920;DHT22;18778;47.610;9.776;2023-06-19T19:56:59;19.00;99.90
7920;DHT22;18778;47.610;9.776;2023-06-19T19:59:25;18.90;99.90
7920;DHT22;18778;47.610;9.776;2023-06-19T20:04:16;16.50;99.90
7920;DHT22;18778;47.610;9.776;2023-06-19T20:06:42;18.90;99.90
7920;DHT22;18778;47.610;9.776;2023-06-19T20:09:11;18.70;99.90
7920;DHT22;18778;47.610;9.776;2023-06-19T20:11:37;18.60;99.90
7920;DHT22;18778;47.610;9.776;2023-06-19T20:14:03;18.60;99.90
7920;DHT22;18778;47.610;9.776;2023-06-19T20:16:28;18.50;99.90
7920;DHT22;18778;47.610;9.776;2023-06-19T20:18:54;18.50;99.90
7920;DHT22;18778;47.610;9.776;2023-06-19T20:21:20;18.50;99.90
7920;DHT22;18778;47.610;9.776;2023-06-19T20:23:46;18.50;99.90
7920;DHT22;18778;47.610;9.776;2023-06-19T20:26:11;18.50;99.90
7920;DHT22;18778;47.610;9.776;2023-06-19T20:28:37;18.40;99.90
7920;DHT22;18778;47.610;9.776;2023-06-19T20:31:04;18.20;99.90
7920;DHT22;18778;47.610;9.776;2023-06-19T20:33:29;18.20;99.90
7920;DHT22;18778;47.610;9.776;2023-06-19T20:35:55;18.20;99.90
7920;DHT22;18778;47.610;9.776;2023-06-19T20:38:20;18.10;99.90
7920;DHT22;18778;47.610;9.776;2023-06-19T20:40:49;18.10;99.90
7920;DHT22;18778;47.610;9.776;2023-06-19T20:43:15;18.00;99.90
7920;DHT22;18778;47.610;9.776;2023-06-19T20:45:40;18.00;99.90
7920;DHT22;18778;47.610;9.776;2023-06-19T20:48:09;18.00;99.90
7920;DHT22;18778;47.610;9.776;2023-06-19T20:50:35;17.80;99.90
7920;DHT22;18778;47.610;9.776;2023-06-19T20:53:01;17.80;99.90
7920;DHT22;18778;47.610;9.776;2023-06-19T20:55:26;17.70;99.90
7920;DHT22;18778;47.610;9.776;2023-06-19T20:57:52;17.70;99.90
7920;DHT22;18778;47.610;9.776;2023-06-19T21:00:18;17.70;99.90
7920;DHT22;18778;47.610;9.776;2023-06-19T21:02:44;17.70;99.90
7920;DHT22;18778;47.610;9.776;2023-06-19T21:05:14;17.70;99.90
7920;DHT22;18778;47.610;9.776;2023-06-19T21:07:44;17.60;99.90
7920;DHT22;18778;47.610;9.776;2023-06-19T21:10:11;17.70;99.90
7920;DHT22;18778;47.610;9.776;2023-06-19T21:12:37;17.70;99.90
7920;DHT22;18778;47.610;9.776;2023-06-19T21:15:03;17.70;99.90
7920;DHT22;18778;47.610;9.776;2023-06-19T21:17:29;17.60;99.90
7920;DHT22;18778;47.610;9.776;2023-06-19T21:19:54;17.60;99.90
7920;DHT22;18778;47.610;9.776;2023-06-19T21:22:20;17.50;99.90
7920;DHT22;18778;47.610;9.776;2023-06-19T21:24:45;17.40;99.90
7920;DHT22;18778;47.610;9.776;2023-06-19T21:27:11;17.40;99.90
7920;DHT22;18778;47.610;9.776;2023-06-19T21:29:37;17.40;99.90
7920;DHT22;18778;47.610;9.776;2023-06-19T21:32:23;17.20;99.90
7920;DHT22;18778;47.610;9.776;2023-06-19T21:34:48;17.10;99.90
7920;DHT22;18778;47.610;9.776;2023-06-19T21:37:14;16.80;99.90
7920;DHT22;18778;47.610;9.776;2023-06-19T21:39:39;16.70;99.90
7920;DHT22;18778;47.610;9.776;2023-06-19T21:42:05;16.60;99.90
7920;DHT22;18778;47.610;9.776;2023-06-19T21:44:31;16.60;99.90
7920;DHT22;18778;47.610;9.776;2023-06-19T21:46:56;16.60;99.90
7920;DHT22;18778;47.610;9.776;2023-06-19T21:51:48;16.70;99.90
7920;DHT22;18778;47.610;9.776;2023-06-19T21:54:14;16.60;99.90
7920;DHT22;18778;47.610;9.776;2023-06-19T21:56:39;16.50;99.90
7920;DHT22;18778;47.610;9.776;2023-06-19T21:59:05;19.60;99.90
7920;DHT22;18778;47.610;9.776;2023-06-19T22:01:30;16.50;99.90
7920;DHT22;18778;47.610;9.776;2023-06-19T22:03:56;19.20;99.90
7920;DHT22;18778;47.610;9.776;2023-06-19T22:08:47;16.30;99.90
7920;DHT22;18778;47.610;9.776;2023-06-19T22:11:13;16.20;99.90
7920;DHT22;18778;47.610;9.776;2023-06-19T22:13:38;16.30;99.90
7920;DHT22;18778;47.610;9.776;2023-06-19T22:16:05;16.30;99.90
7920;DHT22;18778;47.610;9.776;2023-06-19T22:18:30;16.90;99.90
7920;DHT22;18778;47.610;9.776;2023-06-19T22:20:56;16.30;99.90
7920;DHT22;18778;47.610;9.776;2023-06-19T22:25:47;16.30;99.90
7920;DHT22;18778;47.610;9.776;2023-06-19T22:28:13;16.40;99.90
7920;DHT22;18778;47.610;9.776;2023-06-19T22:30:39;16.50;99.90
7920;DHT22;18778;47.610;9.776;2023-06-19T22:33:04;19.30;99.90
7920;DHT22;18778;47.610;9.776;2023-06-19T22:37:58;16.40;99.90
7920;DHT22;18778;47.610;9.776;2023-06-19T22:40:23;16.40;99.90
7920;DHT22;18778;47.610;9.776;2023-06-19T22:42:49;16.50;99.90
7920;DHT22;18778;47.610;9.776;2023-06-19T22:45:15;16.80;99.90
7920;DHT22;18778;47.610;9.776;2023-06-19T22:47:41;16.50;99.90
7920;DHT22;18778;47.610;9.776;2023-06-19T22:50:07;19.70;99.90
7920;DHT22;18778;47.610;9.776;2023-06-19T22:55:00;16.50;99.90
7920;DHT22;18778;47.610;9.776;2023-06-19T22:57:26;16.40;99.90
7920;DHT22;18778;47.610;9.776;2023-06-19T22:59:52;16.40;99.90
7920;DHT22;18778;47.610;9.776;2023-06-19T23:02:17;16.30;99.90
7920;DHT22;18778;47.610;9.776;2023-06-19T23:04:43;16.40;99.90
7920;DHT22;18778;47.610;9.776;2023-06-19T23:09:35;16.30;99.90
7920;DHT22;18778;47.610;9.776;2023-06-19T23:12:00;16.20;99.90
7920;DHT22;18778;47.610;9.776;2023-06-19T23:16:54;16.10;99.90
7920;DHT22;18778;47.610;9.776;2023-06-19T23:19:20;18.70;99.90
7920;DHT22;18778;47.610;9.776;2023-06-19T23:21:45;15.90;99.90
7920;DHT22;18778;47.610;9.776;2023-06-19T23:24:11;15.90;99.90
7920;DHT22;18778;47.610;9.776;2023-06-19T23:26:37;15.90;99.90
7920;DHT22;18778;47.610;9.776;2023-06-19T23:29:02;18.90;99.90
7920;DHT22;18778;47.610;9.776;2023-06-19T23:31:28;15.90;99.90
7920;DHT22;18778;47.610;9.776;2023-06-19T23:33:54;15.80;99.90
7920;DHT22;18778;47.610;9.776;2023-06-19T23:38:50;15.90;99.90
7920;DHT22;18778;47.610;9.776;2023-06-19T23:41:16;15.90;99.90
7920;DHT22;18778;47.610;9.776;2023-06-19T23:46:07;15.90;99.90
7920;DHT22;18778;47.610;9.776;2023-06-19T23:48:33;16.00;99.90
7920;DHT22;18778;47.610;9.776;2023-06-19T23:58:16;16.10;99.90
